sensor_id;sensor_type;location;lat;lon;timestamp;temperature;humidity
21047;DHT22;10682;50.874;3.656;2023-02-08T00:00:54;-2.60;99.90
21047;DHT22;10682;50.874;3.656;2023-02-08T00:03:22;-2.70;99.90
21047;DHT22;10682;50.874;3.656;2023-02-08T00:05:49;-2.70;99.90
21047;DHT22;10682;50.874;3.656;2023-02-08T00:08:16;-2.80;99.90
21047;DHT22;10682;50.874;3.656;2023-02-08T00:10:43;-2.70;99.90
21047;DHT22;10682;50.874;3.656;2023-02-08T00:13:10;-2.80;99.90
21047;DHT22;10682;50.874;3.656;2023-02-08T00:15:44;-2.80;99.90
21047;DHT22;10682;50.874;3.656;2023-02-08T00:18:13;-2.80;99.90
21047;DHT22;10682;50.874;3.656;2023-02-08T00:20:41;-2.80;99.90
21047;DHT22;10682;50.874;3.656;2023-02-08T00:23:09;-2.80;99.90
21047;DHT22;10682;50.874;3.656;2023-02-08T00:25:39;-2.90;99.90
21047;DHT22;10682;50.874;3.656;2023-02-08T00:28:10;-2.90;99.90
21047;DHT22;10682;50.874;3.656;2023-02-08T00:30:39;-3.00;99.90
21047;DHT22;10682;50.874;3.656;2023-02-08T00:33:07;-3.00;99.90
21047;DHT22;10682;50.874;3.656;2023-02-08T00:35:35;-3.10;99.90
21047;DHT22;10682;50.874;3.656;2023-02-08T00:38:02;-3.00;99.90
21047;DHT22;10682;50.874;3.656;2023-02-08T00:40:29;-3.00;99.90
21047;DHT22;10682;50.874;3.656;2023-02-08T00:43:01;-3.00;99.90
21047;DHT22;10682;50.874;3.656;2023-02-08T00:45:30;-3.00;99.90
21047;DHT22;10682;50.874;3.656;2023-02-08T00:47:58;-3.00;99.90
21047;DHT22;10682;50.874;3.656;2023-02-08T00:50:25;-3.10;99.90
21047;DHT22;10682;50.874;3.656;2023-02-08T00:52:52;-3.10;99.90
21047;DHT22;10682;50.874;3.656;2023-02-08T00:55:19;-3.10;99.90
21047;DHT22;10682;50.874;3.656;2023-02-08T00:57:49;-3.10;99.90
21047;DHT22;10682;50.874;3.656;2023-02-08T01:00:16;-3.10;99.90
21047;DHT22;10682;50.874;3.656;2023-02-08T01:02:44;-3.10;99.90
21047;DHT22;10682;50.874;3.656;2023-02-08T01:05:11;-3.10;99.90
21047;DHT22;10682;50.874;3.656;2023-02-08T01:07:38;-3.20;99.90
21047;DHT22;10682;50.874;3.656;2023-02-08T01:10:07;-3.20;99.90
21047;DHT22;10682;50.874;3.656;2023-02-08T01:12:38;-3.20;99.90
21047;DHT22;10682;50.874;3.656;2023-02-08T01:15:05;-3.20;99.90
21047;DHT22;10682;50.874;3.656;2023-02-08T01:17:32;-3.20;99.90
21047;DHT22;10682;50.874;3.656;2023-02-08T01:19:59;-3.20;99.90
21047;DHT22;10682;50.874;3.656;2023-02-08T01:22:28;-3.30;99.90
21047;DHT22;10682;50.874;3.656;2023-02-08T01:24:55;-3.30;99.90
21047;DHT22;10682;50.874;3.656;2023-02-08T01:27:22;-3.30;99.90
21047;DHT22;10682;50.874;3.656;2023-02-08T01:29:49;-3.30;99.90
21047;DHT22;10682;50.874;3.656;2023-02-08T01:32:16;-3.30;99.90
21047;DHT22;10682;50.874;3.656;2023-02-08T01:34:43;-3.30;99.90
21047;DHT22;10682;50.874;3.656;2023-02-08T01:37:10;-3.30;99.90
21047;DHT22;10682;50.874;3.656;2023-02-08T01:39:37;-3.30;99.90
21047;DHT22;10682;50.874;3.656;2023-02-08T01:42:04;-3.30;99.90
21047;DHT22;10682;50.874;3.656;2023-02-08T01:47:44;-3.20;99.90
21047;DHT22;10682;50.874;3.656;2023-02-08T01:50:15;-3.30;99.90
21047;DHT22;10682;50.874;3.656;2023-02-08T01:52:46;-3.30;99.90
21047;DHT22;10682;50.874;3.656;2023-02-08T01:55:30;-3.30;99.90
21047;DHT22;10682;50.874;3.656;2023-02-08T01:58:02;-3.30;99.90
21047;DHT22;10682;50.874;3.656;2023-02-08T02:00:31;-3.30;99.90
21047;DHT22;10682;50.874;3.656;2023-02-08T02:03:00;-3.30;99.90
21047;DHT22;10682;50.874;3.656;2023-02-08T02:05:40;-3.30;99.90
21047;DHT22;10682;50.874;3.656;2023-02-08T02:08:09;-3.40;99.90
21047;DHT22;10682;50.874;3.656;2023-02-08T02:10:38;-3.40;99.90
21047;DHT22;10682;50.874;3.656;2023-02-08T02:13:12;-3.40;99.90
21047;DHT22;10682;50.874;3.656;2023-02-08T02:15:44;-3.50;99.90
21047;DHT22;10682;50.874;3.656;2023-02-08T02:18:24;-3.50;99.90
21047;DHT22;10682;50.874;3.656;2023-02-08T02:21:24;-3.50;99.90
21047;DHT22;10682;50.874;3.656;2023-02-08T02:24:36;-3.50;99.90
21047;DHT22;10682;50.874;3.656;2023-02-08T02:27:24;-3.50;99.90
21047;DHT22;10682;50.874;3.656;2023-02-08T02:35:58;-3.60;99.90
21047;DHT22;10682;50.874;3.656;2023-02-08T02:38:56;-3.60;99.90
21047;DHT22;10682;50.874;3.656;2023-02-08T02:47:57;-3.70;99.90
21047;DHT22;10682;50.874;3.656;2023-02-08T02:50:38;-3.80;99.90
21047;DHT22;10682;50.874;3.656;2023-02-08T02:53:19;-3.70;99.90
21047;DHT22;10682;50.874;3.656;2023-02-08T02:56:16;-3.70;99.90
21047;DHT22;10682;50.874;3.656;2023-02-08T02:58:46;-3.80;99.90
21047;DHT22;10682;50.874;3.656;2023-02-08T03:01:13;-3.80;99.90
21047;DHT22;10682;50.874;3.656;2023-02-08T03:03:52;-3.80;99.90
21047;DHT22;10682;50.874;3.656;2023-02-08T03:06:41;-3.80;99.90
21047;DHT22;10682;50.874;3.656;2023-02-08T03:09:22;-3.80;99.90
21047;DHT22;10682;50.874;3.656;2023-02-08T03:15:39;-3.80;99.90
21047;DHT22;10682;50.874;3.656;2023-02-08T03:24:58;-3.70;99.90
21047;DHT22;10682;50.874;3.656;2023-02-08T03:31:12;-3.70;99.90
21047;DHT22;10682;50.874;3.656;2023-02-08T03:33:45;-3.70;99.90
21047;DHT22;10682;50.874;3.656;2023-02-08T03:36:33;-3.70;99.90
21047;DHT22;10682;50.874;3.656;2023-02-08T03:39:05;-3.70;99.90
21047;DHT22;10682;50.874;3.656;2023-02-08T03:41:38;-3.80;99.90
21047;DHT22;10682;50.874;3.656;2023-02-08T03:44:39;-3.80;99.90
21047;DHT22;10682;50.874;3.656;2023-02-08T03:47:21;-3.80;99.90
21047;DHT22;10682;50.874;3.656;2023-02-08T03:49:52;-3.80;99.90
21047;DHT22;10682;50.874;3.656;2023-02-08T03:52:21;-3.90;99.90
21047;DHT22;10682;50.874;3.656;2023-02-08T03:54:54;-3.90;99.90
21047;DHT22;10682;50.874;3.656;2023-02-08T03:57:34;-3.90;99.90
21047;DHT22;10682;50.874;3.656;2023-02-08T04:00:10;-3.90;99.90
21047;DHT22;10682;50.874;3.656;2023-02-08T04:02:47;-3.90;99.90
21047;DHT22;10682;50.874;3.656;2023-02-08T04:05:18;-3.90;99.90
21047;DHT22;10682;50.874;3.656;2023-02-08T04:07:46;-3.90;99.90
21047;DHT22;10682;50.874;3.656;2023-02-08T04:10:14;-4.00;99.90
21047;DHT22;10682;50.874;3.656;2023-02-08T04:12:41;-4.00;99.90
21047;DHT22;10682;50.874;3.656;2023-02-08T04:15:09;-4.00;99.90
21047;DHT22;10682;50.874;3.656;2023-02-08T04:17:36;-4.10;99.90
21047;DHT22;10682;50.874;3.656;2023-02-08T04:20:03;-4.10;99.90
21047;DHT22;10682;50.874;3.656;2023-02-08T04:22:30;-4.10;99.90
21047;DHT22;10682;50.874;3.656;2023-02-08T04:24:59;-4.10;99.90
21047;DHT22;10682;50.874;3.656;2023-02-08T04:27:26;-4.10;99.90
21047;DHT22;10682;50.874;3.656;2023-02-08T04:29:53;-4.10;99.90
21047;DHT22;10682;50.874;3.656;2023-02-08T04:32:20;-4.10;99.90
21047;DHT22;10682;50.874;3.656;2023-02-08T04:34:47;-4.10;99.90
21047;DHT22;10682;50.874;3.656;2023-02-08T04:37:14;-4.20;99.90
21047;DHT22;10682;50.874;3.656;2023-02-08T04:39:41;-4.20;99.90
21047;DHT22;10682;50.874;3.656;2023-02-08T04:42:08;-4.30;99.90
21047;DHT22;10682;50.874;3.656;2023-02-08T04:44:36;-4.30;99.90
21047;DHT22;10682;50.874;3.656;2023-02-08T04:47:03;-4.30;99.90
21047;DHT22;10682;50.874;3.656;2023-02-08T04:49:31;-4.30;99.90
21047;DHT22;10682;50.874;3.656;2023-02-08T04:51:57;-4.30;99.90
21047;DHT22;10682;50.874;3.656;2023-02-08T04:54:24;-4.20;99.90
21047;DHT22;10682;50.874;3.656;2023-02-08T04:56:52;-4.20;99.90
21047;DHT22;10682;50.874;3.656;2023-02-08T04:59:23;-4.30;99.90
21047;DHT22;10682;50.874;3.656;2023-02-08T05:01:51;-4.30;99.90
21047;DHT22;10682;50.874;3.656;2023-02-08T05:04:18;-4.30;99.90
21047;DHT22;10682;50.874;3.656;2023-02-08T05:06:45;-4.30;99.90
21047;DHT22;10682;50.874;3.656;2023-02-08T05:09:14;-4.30;99.90
21047;DHT22;10682;50.874;3.656;2023-02-08T05:11:41;-4.40;99.90
21047;DHT22;10682;50.874;3.656;2023-02-08T05:14:08;-4.30;99.90
21047;DHT22;10682;50.874;3.656;2023-02-08T05:16:35;-4.40;99.90
21047;DHT22;10682;50.874;3.656;2023-02-08T05:19:02;-4.40;99.90
21047;DHT22;10682;50.874;3.656;2023-02-08T05:21:29;-4.40;99.90
21047;DHT22;10682;50.874;3.656;2023-02-08T05:23:56;-4.50;99.90
21047;DHT22;10682;50.874;3.656;2023-02-08T05:26:23;-4.50;99.90
21047;DHT22;10682;50.874;3.656;2023-02-08T05:28:50;-4.50;99.90
21047;DHT22;10682;50.874;3.656;2023-02-08T05:31:20;-4.50;99.90
21047;DHT22;10682;50.874;3.656;2023-02-08T05:33:50;-4.50;99.90
21047;DHT22;10682;50.874;3.656;2023-02-08T05:36:19;-4.40;99.90
21047;DHT22;10682;50.874;3.656;2023-02-08T05:38:46;-4.40;99.90
21047;DHT22;10682;50.874;3.656;2023-02-08T05:41:14;-4.40;99.90
21047;DHT22;10682;50.874;3.656;2023-02-08T05:43:41;-4.30;99.90
21047;DHT22;10682;50.874;3.656;2023-02-08T05:46:08;-4.30;99.90
21047;DHT22;10682;50.874;3.656;2023-02-08T05:48:35;-4.30;99.90
21047;DHT22;10682;50.874;3.656;2023-02-08T05:51:02;-4.30;99.90
21047;DHT22;10682;50.874;3.656;2023-02-08T05:53:30;-4.30;99.90
21047;DHT22;10682;50.874;3.656;2023-02-08T05:55:57;-4.30;99.90
21047;DHT22;10682;50.874;3.656;2023-02-08T05:58:25;-4.30;99.90
21047;DHT22;10682;50.874;3.656;2023-02-08T06:00:52;-4.30;99.90
21047;DHT22;10682;50.874;3.656;2023-02-08T06:03:19;-4.30;99.90
21047;DHT22;10682;50.874;3.656;2023-02-08T06:05:47;-4.40;99.90
21047;DHT22;10682;50.874;3.656;2023-02-08T06:08:14;-4.40;99.90
21047;DHT22;10682;50.874;3.656;2023-02-08T06:10:41;-4.40;99.90
21047;DHT22;10682;50.874;3.656;2023-02-08T06:13:08;-4.40;99.90
21047;DHT22;10682;50.874;3.656;2023-02-08T06:15:35;-4.40;99.90
21047;DHT22;10682;50.874;3.656;2023-02-08T06:18:02;-4.50;99.90
21047;DHT22;10682;50.874;3.656;2023-02-08T06:20:30;-4.50;99.90
21047;DHT22;10682;50.874;3.656;2023-02-08T06:22:57;-4.50;99.90
21047;DHT22;10682;50.874;3.656;2023-02-08T06:25:24;-4.50;99.90
21047;DHT22;10682;50.874;3.656;2023-02-08T06:27:51;-4.60;99.90
21047;DHT22;10682;50.874;3.656;2023-02-08T06:30:18;-4.60;99.90
21047;DHT22;10682;50.874;3.656;2023-02-08T06:32:45;-4.60;99.90
21047;DHT22;10682;50.874;3.656;2023-02-08T06:35:13;-4.70;99.90
21047;DHT22;10682;50.874;3.656;2023-02-08T06:37:40;-4.70;99.90
21047;DHT22;10682;50.874;3.656;2023-02-08T06:40:11;-4.70;99.90
21047;DHT22;10682;50.874;3.656;2023-02-08T06:42:41;-4.70;99.90
21047;DHT22;10682;50.874;3.656;2023-02-08T06:45:16;-4.70;99.90
21047;DHT22;10682;50.874;3.656;2023-02-08T06:47:44;-4.70;99.90
21047;DHT22;10682;50.874;3.656;2023-02-08T06:50:10;-4.80;99.90
21047;DHT22;10682;50.874;3.656;2023-02-08T06:52:38;-4.80;99.90
21047;DHT22;10682;50.874;3.656;2023-02-08T06:55:05;-4.80;99.90
21047;DHT22;10682;50.874;3.656;2023-02-08T06:57:32;-4.80;99.90
21047;DHT22;10682;50.874;3.656;2023-02-08T07:00:13;-4.70;99.90
21047;DHT22;10682;50.874;3.656;2023-02-08T07:02:55;-4.70;99.90
21047;DHT22;10682;50.874;3.656;2023-02-08T07:05:22;-4.70;99.90
21047;DHT22;10682;50.874;3.656;2023-02-08T07:07:49;-4.70;99.90
21047;DHT22;10682;50.874;3.656;2023-02-08T07:10:16;-4.70;99.90
21047;DHT22;10682;50.874;3.656;2023-02-08T07:12:43;-4.70;99.90
21047;DHT22;10682;50.874;3.656;2023-02-08T07:15:10;-4.60;99.90
21047;DHT22;10682;50.874;3.656;2023-02-08T07:17:39;-4.50;99.90
21047;DHT22;10682;50.874;3.656;2023-02-08T07:20:07;-4.50;99.90
21047;DHT22;10682;50.874;3.656;2023-02-08T07:22:38;-4.50;99.90
21047;DHT22;10682;50.874;3.656;2023-02-08T07:25:09;-4.50;99.90
21047;DHT22;10682;50.874;3.656;2023-02-08T07:27:36;-4.40;99.90
21047;DHT22;10682;50.874;3.656;2023-02-08T07:30:03;-4.30;99.90
21047;DHT22;10682;50.874;3.656;2023-02-08T07:32:31;-4.30;99.90
21047;DHT22;10682;50.874;3.656;2023-02-08T07:35:00;-4.20;99.90
21047;DHT22;10682;50.874;3.656;2023-02-08T07:37:27;-4.10;99.90
21047;DHT22;10682;50.874;3.656;2023-02-08T07:39:54;-4.10;99.90
21047;DHT22;10682;50.874;3.656;2023-02-08T07:42:22;-4.10;99.90
21047;DHT22;10682;50.874;3.656;2023-02-08T07:44:49;-4.00;99.90
21047;DHT22;10682;50.874;3.656;2023-02-08T07:47:16;-4.00;99.90
21047;DHT22;10682;50.874;3.656;2023-02-08T07:49:43;-3.90;99.90
21047;DHT22;10682;50.874;3.656;2023-02-08T07:52:10;-3.80;99.90
21047;DHT22;10682;50.874;3.656;2023-02-08T07:54:37;-3.60;99.90
21047;DHT22;10682;50.874;3.656;2023-02-08T07:57:04;-3.50;99.90
21047;DHT22;10682;50.874;3.656;2023-02-08T07:59:31;-3.50;99.90
21047;DHT22;10682;50.874;3.656;2023-02-08T08:01:58;-3.40;99.90
21047;DHT22;10682;50.874;3.656;2023-02-08T08:04:25;-3.30;99.90
21047;DHT22;10682;50.874;3.656;2023-02-08T08:06:52;-3.20;99.90
21047;DHT22;10682;50.874;3.656;2023-02-08T08:09:19;-3.10;99.90
21047;DHT22;10682;50.874;3.656;2023-02-08T08:11:46;-2.90;99.90
21047;DHT22;10682;50.874;3.656;2023-02-08T08:14:13;-2.60;99.90
21047;DHT22;10682;50.874;3.656;2023-02-08T08:16:40;-2.00;99.90
21047;DHT22;10682;50.874;3.656;2023-02-08T08:19:09;-0.90;99.90
21047;DHT22;10682;50.874;3.656;2023-02-08T08:21:36;0.30;99.90
21047;DHT22;10682;50.874;3.656;2023-02-08T08:24:03;1.30;99.90
21047;DHT22;10682;50.874;3.656;2023-02-08T08:26:30;2.30;99.90
21047;DHT22;10682;50.874;3.656;2023-02-08T08:28:57;2.60;99.90
21047;DHT22;10682;50.874;3.656;2023-02-08T08:31:24;2.90;99.90
21047;DHT22;10682;50.874;3.656;2023-02-08T08:33:51;3.30;99.90
21047;DHT22;10682;50.874;3.656;2023-02-08T08:36:18;4.00;99.90
21047;DHT22;10682;50.874;3.656;2023-02-08T08:38:45;4.70;99.90
21047;DHT22;10682;50.874;3.656;2023-02-08T08:41:15;5.10;99.90
21047;DHT22;10682;50.874;3.656;2023-02-08T08:43:44;5.60;99.90
21047;DHT22;10682;50.874;3.656;2023-02-08T08:46:11;6.20;99.90
21047;DHT22;10682;50.874;3.656;2023-02-08T08:48:38;6.70;99.90
21047;DHT22;10682;50.874;3.656;2023-02-08T08:51:05;7.00;99.90
21047;DHT22;10682;50.874;3.656;2023-02-08T08:53:40;7.30;99.90
21047;DHT22;10682;50.874;3.656;2023-02-08T08:56:07;7.60;99.90
21047;DHT22;10682;50.874;3.656;2023-02-08T08:58:40;7.90;99.90
21047;DHT22;10682;50.874;3.656;2023-02-08T09:01:14;8.00;99.90
21047;DHT22;10682;50.874;3.656;2023-02-08T09:03:41;8.30;99.90
21047;DHT22;10682;50.874;3.656;2023-02-08T09:06:09;8.50;99.90
21047;DHT22;10682;50.874;3.656;2023-02-08T09:08:39;8.80;99.90
21047;DHT22;10682;50.874;3.656;2023-02-08T09:11:07;9.00;99.90
21047;DHT22;10682;50.874;3.656;2023-02-08T09:13:37;9.10;99.90
21047;DHT22;10682;50.874;3.656;2023-02-08T09:16:09;9.10;99.90
21047;DHT22;10682;50.874;3.656;2023-02-08T09:18:40;9.00;99.90
21047;DHT22;10682;50.874;3.656;2023-02-08T09:21:13;9.00;99.90
21047;DHT22;10682;50.874;3.656;2023-02-08T09:23:41;9.00;99.90
21047;DHT22;10682;50.874;3.656;2023-02-08T09:26:10;9.20;99.90
21047;DHT22;10682;50.874;3.656;2023-02-08T09:28:38;9.10;99.90
21047;DHT22;10682;50.874;3.656;2023-02-08T09:31:10;9.10;99.90
21047;DHT22;10682;50.874;3.656;2023-02-08T09:33:40;9.00;99.90
21047;DHT22;10682;50.874;3.656;2023-02-08T09:36:07;8.90;99.90
21047;DHT22;10682;50.874;3.656;2023-02-08T09:38:35;9.10;99.90
21047;DHT22;10682;50.874;3.656;2023-02-08T09:47:08;8.50;99.90
21047;DHT22;10682;50.874;3.656;2023-02-08T09:50:38;8.40;99.90
21047;DHT22;10682;50.874;3.656;2023-02-08T09:53:22;8.30;99.90
21047;DHT22;10682;50.874;3.656;2023-02-08T09:56:03;8.10;99.90
21047;DHT22;10682;50.874;3.656;2023-02-08T09:58:46;8.00;99.90
21047;DHT22;10682;50.874;3.656;2023-02-08T10:01:35;8.00;99.90
21047;DHT22;10682;50.874;3.656;2023-02-08T10:04:14;8.00;99.90
21047;DHT22;10682;50.874;3.656;2023-02-08T10:06:47;7.90;99.90
21047;DHT22;10682;50.874;3.656;2023-02-08T10:09:29;7.80;99.90
21047;DHT22;10682;50.874;3.656;2023-02-08T10:12:22;7.70;99.90
21047;DHT22;10682;50.874;3.656;2023-02-08T10:15:23;7.80;99.90
21047;DHT22;10682;50.874;3.656;2023-02-08T10:21:12;7.50;99.90
21047;DHT22;10682;50.874;3.656;2023-02-08T10:26:47;7.30;99.90
21047;DHT22;10682;50.874;3.656;2023-02-08T10:32:30;7.50;99.90
21047;DHT22;10682;50.874;3.656;2023-02-08T10:35:24;7.50;99.90
21047;DHT22;10682;50.874;3.656;2023-02-08T10:37:55;7.60;99.90
21047;DHT22;10682;50.874;3.656;2023-02-08T10:40:33;7.80;99.90
21047;DHT22;10682;50.874;3.656;2023-02-08T10:43:11;8.00;99.90
21047;DHT22;10682;50.874;3.656;2023-02-08T10:51:17;8.10;99.90
21047;DHT22;10682;50.874;3.656;2023-02-08T10:53:48;8.10;99.90
21047;DHT22;10682;50.874;3.656;2023-02-08T10:59:28;8.20;99.90
21047;DHT22;10682;50.874;3.656;2023-02-08T11:01:58;8.30;99.90
21047;DHT22;10682;50.874;3.656;2023-02-08T11:04:25;8.30;99.90
21047;DHT22;10682;50.874;3.656;2023-02-08T11:06:52;8.10;99.90
21047;DHT22;10682;50.874;3.656;2023-02-08T11:09:24;8.10;99.90
21047;DHT22;10682;50.874;3.656;2023-02-08T11:11:52;8.00;99.90
21047;DHT22;10682;50.874;3.656;2023-02-08T11:14:27;8.10;99.90
21047;DHT22;10682;50.874;3.656;2023-02-08T11:17:27;8.00;99.90
21047;DHT22;10682;50.874;3.656;2023-02-08T11:19:57;8.20;99.90
21047;DHT22;10682;50.874;3.656;2023-02-08T11:22:27;8.30;99.90
21047;DHT22;10682;50.874;3.656;2023-02-08T11:25:05;8.50;99.90
21047;DHT22;10682;50.874;3.656;2023-02-08T11:27:36;8.60;99.90
21047;DHT22;10682;50.874;3.656;2023-02-08T11:32:43;8.90;99.90
21047;DHT22;10682;50.874;3.656;2023-02-08T11:35:19;9.00;99.90
21047;DHT22;10682;50.874;3.656;2023-02-08T11:37:53;9.10;99.90
21047;DHT22;10682;50.874;3.656;2023-02-08T11:40:25;9.20;99.90
21047;DHT22;10682;50.874;3.656;2023-02-08T11:42:55;9.30;99.90
21047;DHT22;10682;50.874;3.656;2023-02-08T11:45:29;9.40;99.90
21047;DHT22;10682;50.874;3.656;2023-02-08T11:47:57;9.40;99.90
21047;DHT22;10682;50.874;3.656;2023-02-08T11:50:32;9.50;99.90
21047;DHT22;10682;50.874;3.656;2023-02-08T11:53:06;9.60;99.90
21047;DHT22;10682;50.874;3.656;2023-02-08T11:56:13;9.80;99.90
21047;DHT22;10682;50.874;3.656;2023-02-08T12:01:47;10.10;99.90
21047;DHT22;10682;50.874;3.656;2023-02-08T12:04:15;10.10;99.90
21047;DHT22;10682;50.874;3.656;2023-02-08T12:12:56;10.40;99.90
21047;DHT22;10682;50.874;3.656;2023-02-08T12:22:24;10.70;99.90
21047;DHT22;10682;50.874;3.656;2023-02-08T12:28:09;10.60;99.90
21047;DHT22;10682;50.874;3.656;2023-02-08T12:33:40;10.50;99.90
21047;DHT22;10682;50.874;3.656;2023-02-08T12:50:55;10.70;99.90
21047;DHT22;10682;50.874;3.656;2023-02-08T12:53:36;10.60;99.90
21047;DHT22;10682;50.874;3.656;2023-02-08T12:56:18;10.60;99.90
21047;DHT22;10682;50.874;3.656;2023-02-08T12:58:49;10.60;99.90
21047;DHT22;10682;50.874;3.656;2023-02-08T13:01:45;10.60;99.90
21047;DHT22;10682;50.874;3.656;2023-02-08T13:04:25;10.60;99.90
21047;DHT22;10682;50.874;3.656;2023-02-08T13:06:59;10.60;99.90
21047;DHT22;10682;50.874;3.656;2023-02-08T13:12:14;10.70;99.90
21047;DHT22;10682;50.874;3.656;2023-02-08T13:14:46;10.70;99.90
21047;DHT22;10682;50.874;3.656;2023-02-08T13:17:48;11.00;99.90
21047;DHT22;10682;50.874;3.656;2023-02-08T13:20:42;11.10;99.90
21047;DHT22;10682;50.874;3.656;2023-02-08T13:23:39;11.10;99.90
21047;DHT22;10682;50.874;3.656;2023-02-08T13:26:23;11.20;99.90
21047;DHT22;10682;50.874;3.656;2023-02-08T13:28:57;11.20;99.90
21047;DHT22;10682;50.874;3.656;2023-02-08T13:31:51;11.20;99.90
21047;DHT22;10682;50.874;3.656;2023-02-08T13:37:05;11.30;99.90
21047;DHT22;10682;50.874;3.656;2023-02-08T13:42:32;11.10;99.90
21047;DHT22;10682;50.874;3.656;2023-02-08T13:45:02;11.10;99.90
21047;DHT22;10682;50.874;3.656;2023-02-08T13:47:33;11.20;99.90
21047;DHT22;10682;50.874;3.656;2023-02-08T13:53:08;11.10;99.90
21047;DHT22;10682;50.874;3.656;2023-02-08T14:03:25;11.10;99.90
21047;DHT22;10682;50.874;3.656;2023-02-08T14:05:59;10.90;99.90
21047;DHT22;10682;50.874;3.656;2023-02-08T14:11:03;10.70;99.90
21047;DHT22;10682;50.874;3.656;2023-02-08T14:13:34;10.60;99.90
21047;DHT22;10682;50.874;3.656;2023-02-08T14:16:35;10.60;99.90
21047;DHT22;10682;50.874;3.656;2023-02-08T14:19:22;10.60;99.90
21047;DHT22;10682;50.874;3.656;2023-02-08T14:24:46;10.40;99.90
21047;DHT22;10682;50.874;3.656;2023-02-08T14:27:25;10.40;99.90
21047;DHT22;10682;50.874;3.656;2023-02-08T14:33:07;10.20;99.90
21047;DHT22;10682;50.874;3.656;2023-02-08T14:35:53;10.10;99.90
21047;DHT22;10682;50.874;3.656;2023-02-08T14:41:02;9.80;99.90
21047;DHT22;10682;50.874;3.656;2023-02-08T14:49:15;9.40;99.90
21047;DHT22;10682;50.874;3.656;2023-02-08T14:51:50;9.30;99.90
21047;DHT22;10682;50.874;3.656;2023-02-08T14:54:31;9.20;99.90
21047;DHT22;10682;50.874;3.656;2023-02-08T14:57:12;9.10;99.90
21047;DHT22;10682;50.874;3.656;2023-02-08T14:59:49;9.10;99.90
21047;DHT22;10682;50.874;3.656;2023-02-08T15:02:22;9.00;99.90
21047;DHT22;10682;50.874;3.656;2023-02-08T15:04:57;9.00;99.90
21047;DHT22;10682;50.874;3.656;2023-02-08T15:07:44;8.90;99.90
21047;DHT22;10682;50.874;3.656;2023-02-08T15:10:14;8.90;99.90
21047;DHT22;10682;50.874;3.656;2023-02-08T15:12:45;8.80;99.90
21047;DHT22;10682;50.874;3.656;2023-02-08T15:15:27;8.60;99.90
21047;DHT22;10682;50.874;3.656;2023-02-08T15:17:57;8.60;99.90
21047;DHT22;10682;50.874;3.656;2023-02-08T15:20:31;8.50;99.90
21047;DHT22;10682;50.874;3.656;2023-02-08T15:23:21;8.40;99.90
21047;DHT22;10682;50.874;3.656;2023-02-08T15:26:05;8.40;99.90
21047;DHT22;10682;50.874;3.656;2023-02-08T15:28:45;8.30;99.90
21047;DHT22;10682;50.874;3.656;2023-02-08T15:31:18;8.20;99.90
21047;DHT22;10682;50.874;3.656;2023-02-08T15:33:47;8.20;99.90
21047;DHT22;10682;50.874;3.656;2023-02-08T15:36:35;8.00;99.90
21047;DHT22;10682;50.874;3.656;2023-02-08T15:39:32;7.90;99.90
21047;DHT22;10682;50.874;3.656;2023-02-08T15:42:01;7.80;99.90
21047;DHT22;10682;50.874;3.656;2023-02-08T15:44:30;7.70;99.90
21047;DHT22;10682;50.874;3.656;2023-02-08T15:47:00;7.60;99.90
21047;DHT22;10682;50.874;3.656;2023-02-08T15:49:34;7.50;99.90
21047;DHT22;10682;50.874;3.656;2023-02-08T15:52:16;7.50;99.90
21047;DHT22;10682;50.874;3.656;2023-02-08T15:54:45;7.40;99.90
21047;DHT22;10682;50.874;3.656;2023-02-08T15:59:58;7.20;99.90
21047;DHT22;10682;50.874;3.656;2023-02-08T16:02:28;7.10;99.90
21047;DHT22;10682;50.874;3.656;2023-02-08T16:04:58;6.90;99.90
21047;DHT22;10682;50.874;3.656;2023-02-08T16:10:05;6.70;99.90
21047;DHT22;10682;50.874;3.656;2023-02-08T16:12:33;6.70;99.90
21047;DHT22;10682;50.874;3.656;2023-02-08T16:15:01;6.60;99.90
21047;DHT22;10682;50.874;3.656;2023-02-08T16:17:42;6.50;99.90
21047;DHT22;10682;50.874;3.656;2023-02-08T16:20:39;6.30;99.90
21047;DHT22;10682;50.874;3.656;2023-02-08T16:23:48;6.10;99.90
21047;DHT22;10682;50.874;3.656;2023-02-08T16:26:26;5.90;99.90
21047;DHT22;10682;50.874;3.656;2023-02-08T16:29:02;5.80;99.90
21047;DHT22;10682;50.874;3.656;2023-02-08T16:31:33;5.70;99.90
21047;DHT22;10682;50.874;3.656;2023-02-08T16:34:04;5.60;99.90
21047;DHT22;10682;50.874;3.656;2023-02-08T16:36:40;5.40;99.90
21047;DHT22;10682;50.874;3.656;2023-02-08T16:47:44;5.00;99.90
21047;DHT22;10682;50.874;3.656;2023-02-08T16:50:20;5.00;99.90
21047;DHT22;10682;50.874;3.656;2023-02-08T16:53:02;4.90;99.90
21047;DHT22;10682;50.874;3.656;2023-02-08T16:55:31;4.80;99.90
21047;DHT22;10682;50.874;3.656;2023-02-08T16:57:59;4.70;99.90
21047;DHT22;10682;50.874;3.656;2023-02-08T17:00:29;4.60;99.90
21047;DHT22;10682;50.874;3.656;2023-02-08T17:02:58;4.40;99.90
21047;DHT22;10682;50.874;3.656;2023-02-08T17:05:29;4.20;99.90
21047;DHT22;10682;50.874;3.656;2023-02-08T17:07:57;4.10;99.90
21047;DHT22;10682;50.874;3.656;2023-02-08T17:10:30;4.10;99.90
21047;DHT22;10682;50.874;3.656;2023-02-08T17:12:59;4.00;99.90
21047;DHT22;10682;50.874;3.656;2023-02-08T17:15:46;3.80;99.90
21047;DHT22;10682;50.874;3.656;2023-02-08T17:18:15;3.70;99.90
21047;DHT22;10682;50.874;3.656;2023-02-08T17:20:42;3.50;99.90
21047;DHT22;10682;50.874;3.656;2023-02-08T17:23:09;3.40;99.90
21047;DHT22;10682;50.874;3.656;2023-02-08T17:25:47;3.30;99.90
21047;DHT22;10682;50.874;3.656;2023-02-08T17:28:23;3.10;99.90
21047;DHT22;10682;50.874;3.656;2023-02-08T17:30:51;3.00;99.90
21047;DHT22;10682;50.874;3.656;2023-02-08T17:33:18;2.90;99.90
21047;DHT22;10682;50.874;3.656;2023-02-08T17:35:50;2.80;99.90
21047;DHT22;10682;50.874;3.656;2023-02-08T17:38:19;2.70;99.90
21047;DHT22;10682;50.874;3.656;2023-02-08T17:40:46;2.70;99.90
21047;DHT22;10682;50.874;3.656;2023-02-08T17:43:13;2.60;99.90
21047;DHT22;10682;50.874;3.656;2023-02-08T17:45:42;2.50;99.90
21047;DHT22;10682;50.874;3.656;2023-02-08T17:48:11;2.40;99.90
21047;DHT22;10682;50.874;3.656;2023-02-08T17:50:42;2.30;99.90
21047;DHT22;10682;50.874;3.656;2023-02-08T17:53:12;2.10;99.90
21047;DHT22;10682;50.874;3.656;2023-02-08T17:55:40;2.00;99.90
21047;DHT22;10682;50.874;3.656;2023-02-08T17:58:09;1.80;99.90
21047;DHT22;10682;50.874;3.656;2023-02-08T18:00:36;1.70;99.90
21047;DHT22;10682;50.874;3.656;2023-02-08T18:03:04;1.60;99.90
21047;DHT22;10682;50.874;3.656;2023-02-08T18:05:31;1.50;99.90
21047;DHT22;10682;50.874;3.656;2023-02-08T18:07:58;1.40;99.90
21047;DHT22;10682;50.874;3.656;2023-02-08T18:10:25;1.30;99.90
21047;DHT22;10682;50.874;3.656;2023-02-08T18:12:53;1.20;99.90
21047;DHT22;10682;50.874;3.656;2023-02-08T18:15:21;1.20;99.90
21047;DHT22;10682;50.874;3.656;2023-02-08T18:17:49;1.10;99.90
21047;DHT22;10682;50.874;3.656;2023-02-08T18:20:17;1.20;99.90
21047;DHT22;10682;50.874;3.656;2023-02-08T18:22:44;1.20;99.90
21047;DHT22;10682;50.874;3.656;2023-02-08T18:25:12;1.10;99.90
21047;DHT22;10682;50.874;3.656;2023-02-08T18:27:40;1.10;99.90
21047;DHT22;10682;50.874;3.656;2023-02-08T18:30:08;1.00;99.90
21047;DHT22;10682;50.874;3.656;2023-02-08T18:32:36;0.90;99.90